createdAt,value
2018-03-06T16:13:00.833Z,27.6
2018-03-06T16:13:53.341Z,27.5
2018-03-06T16:14:43.125Z,27.5
2018-03-06T16:15:33.127Z,27.4
2018-03-06T16:16:23.511Z,27.4
2018-03-06T16:17:13.327Z,27.3
2018-03-06T16:18:04.441Z,27.3
2018-03-06T16:18:54.190Z,27.3
2018-03-06T16:19:44.230Z,27.2
2018-03-06T16:20:33.987Z,27.1
2018-03-06T16:21:24.408Z,27.1
2018-03-06T16:22:13.832Z,27.1
2018-03-06T16:23:04.473Z,27
2018-03-06T16:23:54.533Z,26.9
2018-03-06T16:24:43.985Z,26.9
2018-03-06T16:25:34.354Z,26.9
2018-03-06T16:26:24.138Z,26.9
2018-03-06T16:27:14.157Z,26.8
2018-03-06T16:28:03.094Z,26.8
2018-03-06T16:28:54.860Z,26.8
2018-03-06T16:29:44.940Z,26.8
2018-03-06T16:30:34.702Z,26.7
2018-03-06T16:31:25.105Z,26.6
2018-03-06T16:32:15.129Z,26.6
2018-03-06T16:33:05.195Z,26.5
2018-03-06T16:33:55.182Z,26.4
2018-03-06T16:34:45.952Z,26.4
2018-03-06T16:35:35.616Z,26.3
2018-03-06T16:36:25.649Z,26.3
2018-03-06T16:37:15.154Z,26.2
2018-03-06T16:38:04.650Z,26.1
2018-03-06T16:38:55.018Z,26.1
2018-03-06T16:39:45.869Z,25.9
2018-03-06T16:40:35.966Z,25.9
2018-03-06T16:41:26.016Z,25.8
2018-03-06T16:42:15.801Z,25.8
2018-03-06T16:43:05.893Z,25.7
2018-03-06T16:43:56.199Z,25.6
2018-03-06T16:44:46.243Z,25.6
2018-03-06T16:45:35.753Z,25.4
2018-03-06T16:46:26.066Z,25.4
2018-03-06T16:47:15.838Z,25.3
2018-03-06T16:48:06.191Z,25.2
2018-03-06T16:48:55.743Z,25.1
2018-03-06T16:49:46.061Z,25
2018-03-06T16:50:36.084Z,24.8
2018-03-06T16:51:26.444Z,24.8
2018-03-06T16:52:16.225Z,24.7
2018-03-06T16:53:05.972Z,24.6
2018-03-06T16:53:56.876Z,24.5
2018-03-06T16:54:46.638Z,24.4
2018-03-06T16:55:37.012Z,24.3
2018-03-06T16:56:27.070Z,24.3
2018-03-06T16:57:15.988Z,24.2
2018-03-06T16:58:07.153Z,24.1
2018-03-06T16:58:56.066Z,24.1
2018-03-06T16:59:46.705Z,24
2018-03-06T17:00:37.320Z,23.9
2018-03-06T17:01:27.388Z,23.9
2018-03-06T17:02:16.888Z,23.8
2018-03-06T17:03:07.506Z,23.8
2018-03-06T17:03:57.306Z,23.7
2018-03-06T17:04:48.394Z,23.7
2018-03-06T17:05:37.674Z,23.6
2018-03-06T17:06:27.160Z,23.6
2018-03-06T17:07:17.800Z,23.5
2018-03-06T17:08:07.565Z,23.5
2018-03-06T17:08:57.926Z,23.4
2018-03-06T17:09:47.425Z,23.4
2018-03-06T17:10:37.718Z,23.4
2018-03-06T17:11:27.514Z,23.3
2018-03-06T17:12:18.160Z,23.3
2018-03-06T17:13:07.928Z,23.3
2018-03-06T17:13:58.241Z,23.3
2018-03-06T17:14:48.299Z,23.2
2018-03-06T17:15:37.850Z,23.2
2018-03-06T17:16:27.852Z,23.1
2018-03-06T17:17:17.992Z,23.1
2018-03-06T17:18:08.262Z,23.1
2018-03-06T17:18:58.297Z,23.1
2018-03-06T17:19:48.396Z,23
2018-03-06T17:20:37.848Z,23
2018-03-06T17:21:28.764Z,22.9
2018-03-06T17:22:18.590Z,22.9
2018-03-06T17:23:08.886Z,22.9
2018-03-06T17:23:58.638Z,22.9
2018-03-06T17:24:48.998Z,22.9
2018-03-06T17:25:39.056Z,22.8
2018-03-06T17:26:29.128Z,22.8
2018-03-06T17:27:18.346Z,22.8
2018-03-06T17:28:08.969Z,22.8
2018-03-06T17:28:58.819Z,22.8
2018-03-06T17:29:49.107Z,22.7
2018-03-06T17:30:39.406Z,22.7
2018-03-06T17:31:29.485Z,22.7
2018-03-06T17:32:18.128Z,22.6
2018-03-06T17:33:08.442Z,22.6
2018-03-06T17:33:58.191Z,22.6
2018-03-06T17:34:48.649Z,22.6
2018-03-06T17:35:38.121Z,22.6
2018-03-06T17:36:28.288Z,22.6
2018-03-06T17:37:18.903Z,22.6
2018-03-06T17:38:08.821Z,22.5
2018-03-06T17:38:58.459Z,22.5
2018-03-06T17:39:49.374Z,22.5
2018-03-06T17:40:39.070Z,22.5
2018-03-06T17:41:28.543Z,22.5
2018-03-06T17:42:19.192Z,22.4
2018-03-06T17:43:08.951Z,22.4
2018-03-06T17:43:59.322Z,22.4
2018-03-06T17:44:47.863Z,22.4
2018-03-06T17:45:38.771Z,22.4
2018-03-06T17:46:29.062Z,22.4
2018-03-06T17:47:18.833Z,22.4
2018-03-06T17:48:09.354Z,22.3
2018-03-06T17:48:59.909Z,22.4
2018-03-06T17:49:49.569Z,22.3
2018-03-06T17:50:38.245Z,22.3
2018-03-06T17:51:29.566Z,22.3
2018-03-06T17:52:19.355Z,22.3
2018-03-06T17:53:09.543Z,22.3
2018-03-06T17:54:00.605Z,22.3
2018-03-06T17:54:50.765Z,22.3
2018-03-06T17:55:40.320Z,22.3
2018-03-06T17:56:30.914Z,22.2
2018-03-06T17:57:20.927Z,22.2
2018-03-06T17:58:09.992Z,22.2
2018-03-06T17:59:00.557Z,22.2
2018-03-06T17:59:50.073Z,22.2
2018-03-06T18:00:40.248Z,22.2
2018-03-06T18:01:30.816Z,22.2
2018-03-06T18:02:20.045Z,22.2
2018-03-06T18:03:09.707Z,22.1
2018-03-06T18:04:00.037Z,22.1
2018-03-06T18:04:50.977Z,22.1
2018-03-06T18:05:39.946Z,22.1
2018-03-06T18:06:30.873Z,22.1
2018-03-06T18:07:22.129Z,22.1
2018-03-06T18:08:11.679Z,22.1
2018-03-06T18:09:01.572Z,22.1
2018-03-06T18:09:51.610Z,22.1
2018-03-06T18:10:41.996Z,22.1
2018-03-06T18:11:32.237Z,22
2018-03-06T18:12:21.679Z,22
2018-03-06T18:13:12.023Z,22
2018-03-06T18:14:02.446Z,22
2018-03-06T18:14:51.322Z,22
2018-03-06T18:15:41.991Z,21.9
2018-03-06T18:16:32.327Z,22
2018-03-06T18:17:22.635Z,21.9
2018-03-06T18:18:12.398Z,21.9
2018-03-06T18:19:02.718Z,21.9
2018-03-06T18:19:52.239Z,21.9
2018-03-06T18:20:42.272Z,21.9
2018-03-06T18:21:32.096Z,21.9
2018-03-06T18:22:23.016Z,21.9
2018-03-06T18:23:13.026Z,21.9
2018-03-06T18:24:03.116Z,21.9
2018-03-06T18:24:52.850Z,21.9
2018-03-06T18:25:42.925Z,21.8
2018-03-06T18:26:33.013Z,21.8
2018-03-06T18:27:23.300Z,21.8
2018-03-06T18:28:13.384Z,21.8
2018-03-06T18:29:02.924Z,21.8
2018-03-06T18:29:53.247Z,21.8
2018-03-06T18:30:43.276Z,21.8
2018-03-06T18:31:33.653Z,21.7
2018-03-06T18:32:23.265Z,21.7
2018-03-06T18:33:13.168Z,21.7
2018-03-06T18:34:03.841Z,21.6
2018-03-06T18:34:53.398Z,21.7
2018-03-06T18:35:43.312Z,21.6
2018-03-06T18:36:33.393Z,21.6
2018-03-06T18:37:22.887Z,21.6
2018-03-06T18:38:13.738Z,21.6
2018-03-06T18:39:03.557Z,21.6
2018-03-06T18:39:53.846Z,21.6
2018-03-06T18:40:43.899Z,21.6
2018-03-06T18:41:34.320Z,21.6
2018-03-06T18:42:24.367Z,21.6
2018-03-06T18:43:14.077Z,21.6
2018-03-06T18:44:03.874Z,21.5
2018-03-06T18:44:54.583Z,21.5
2018-03-06T18:45:44.275Z,21.5
2018-03-06T18:46:34.649Z,21.5
2018-03-06T18:47:24.221Z,21.4
2018-03-06T18:48:14.586Z,21.4
2018-03-06T18:49:04.783Z,21.4
2018-03-06T18:49:54.600Z,21.3
2018-03-06T18:50:44.608Z,21.3
2018-03-06T18:51:33.700Z,21.2
2018-03-06T18:53:15.147Z,21
2018-03-06T18:54:05.169Z,20.9
2018-03-06T18:54:54.693Z,20.9
2018-03-06T18:55:44.453Z,20.8
2018-03-06T18:56:34.851Z,20.7
2018-03-06T18:57:24.544Z,20.6
2018-03-06T18:58:15.158Z,20.6
2018-03-06T18:59:05.471Z,20.4
2018-03-06T18:59:55.548Z,20.4
2018-03-06T19:00:45.584Z,20.4
2018-03-06T19:01:34.776Z,20.3
2018-03-06T19:02:24.309Z,20.2
2018-03-06T19:03:15.458Z,20.2
2018-03-06T19:04:05.840Z,20.1
2018-03-06T19:04:55.896Z,20.1
2018-03-06T19:05:45.708Z,20
2018-03-06T19:06:35.974Z,20
2018-03-06T19:08:16.099Z,19.9
2018-03-06T19:09:05.950Z,19.8
2018-03-06T19:09:55.631Z,19.8
2018-03-06T19:10:45.694Z,19.7
2018-03-06T19:11:36.326Z,19.7
2018-03-06T19:12:25.840Z,19.6
2018-03-06T19:13:16.486Z,19.6
2018-03-06T19:14:06.227Z,19.6
2018-03-06T19:14:56.315Z,19.5
2018-03-06T19:15:46.143Z,19.5
2018-03-06T19:16:36.417Z,19.4
2018-03-06T19:17:26.446Z,19.4
2018-03-06T19:18:16.528Z,19.4
2018-03-06T19:19:07.040Z,19.4
2018-03-06T19:19:56.373Z,19.3
2018-03-06T19:20:46.704Z,19.3
2018-03-06T19:21:36.205Z,19.3
2018-03-06T19:22:26.815Z,19.3
2018-03-06T19:23:16.591Z,19.3
2018-03-06T19:24:06.931Z,19.2
2018-03-06T19:24:57.226Z,19.2
2018-03-06T19:25:47.067Z,19.1
2018-03-06T19:26:37.394Z,19.1
2018-03-06T19:27:27.139Z,19.1
2018-03-06T19:28:17.231Z,19.1
2018-03-06T19:29:07.572Z,19.1
2018-03-06T19:29:57.651Z,19.1
2018-03-06T19:30:47.370Z,19.1
2018-03-06T19:31:37.405Z,19
2018-03-06T19:32:27.731Z,19
2018-03-06T19:33:17.581Z,19
2018-03-06T19:34:07.616Z,18.9
2018-03-06T19:34:57.379Z,18.9
2018-03-06T19:35:47.479Z,18.9
2018-03-06T19:36:38.031Z,18.9
2018-03-06T19:37:28.151Z,18.9
2018-03-06T19:38:17.891Z,18.9
2018-03-06T19:39:08.207Z,18.9
2018-03-06T19:39:58.011Z,18.9
2018-03-06T19:40:48.076Z,18.8
2018-03-06T19:41:37.878Z,18.8
2018-03-06T19:42:28.486Z,18.8
2018-03-06T19:43:18.264Z,18.8
2018-03-06T19:44:08.320Z,18.8
2018-03-06T19:44:58.369Z,18.8
2018-03-06T19:45:48.174Z,18.8
2018-03-06T19:46:38.190Z,18.8
2018-03-06T19:47:27.953Z,18.8
2018-03-06T19:48:18.869Z,18.8
2018-03-06T19:49:08.345Z,18.8
2018-03-06T19:49:58.408Z,18.8
2018-03-06T19:57:28.174Z,18.6
2018-03-06T19:58:18.728Z,18.6
2018-03-06T19:59:09.263Z,18.6
2018-03-06T19:59:58.853Z,18.6
2018-03-06T20:00:49.252Z,18.6
2018-03-06T20:01:38.967Z,18.6
2018-03-06T20:02:29.589Z,18.6
2018-03-06T20:03:19.687Z,18.6
2018-03-06T20:04:08.882Z,18.6
2018-03-06T20:04:59.497Z,18.6
2018-03-06T20:05:50.088Z,18.6
2018-03-06T20:06:39.355Z,18.6
2018-03-06T20:07:29.455Z,18.6
2018-03-06T20:08:20.469Z,18.6
2018-03-06T20:09:09.825Z,18.6
2018-03-06T20:10:00.182Z,18.5
2018-03-06T20:10:49.689Z,18.5
2018-03-06T20:11:39.954Z,18.5
2018-03-06T20:12:30.044Z,18.5
2018-03-06T20:13:20.332Z,18.5
2018-03-06T20:14:10.399Z,18.5
2018-03-06T20:15:00.209Z,18.5
2018-03-06T20:15:50.018Z,18.5
2018-03-06T20:16:40.319Z,18.5
2018-03-06T20:17:29.779Z,18.5
2018-03-06T20:18:20.444Z,18.5
2018-03-06T20:19:10.765Z,18.5
2018-03-06T20:20:00.740Z,18.5
2018-03-06T20:20:50.845Z,18.4
2018-03-06T20:21:40.980Z,18.4
2018-03-06T20:22:30.941Z,18.4
2018-03-06T20:23:21.043Z,18.4
2018-03-06T20:24:11.390Z,18.4
2018-03-06T20:25:00.853Z,18.4
2018-03-06T20:25:51.528Z,18.4
2018-03-06T20:26:41.270Z,18.4
2018-03-06T20:27:31.328Z,18.4
2018-03-06T20:28:21.673Z,18.4
2018-03-06T20:29:11.462Z,18.4
2018-03-06T20:30:01.489Z,18.4
2018-03-06T20:30:51.290Z,18.4
2018-03-06T20:31:41.858Z,18.4
2018-03-06T20:32:31.968Z,18.4
2018-03-06T20:33:21.443Z,18.4
2018-03-06T20:34:11.798Z,18.4
2018-03-06T20:35:01.543Z,18.4
2018-03-06T20:35:51.964Z,18.3
2018-03-06T20:36:41.702Z,18.4
2018-03-06T20:37:31.821Z,18.4
2018-03-06T20:38:22.019Z,18.3
2018-03-06T20:39:11.927Z,18.4
2018-03-06T20:40:02.305Z,18.3
2018-03-06T20:40:51.900Z,18.3
2018-03-06T20:41:42.615Z,18.3
2018-03-06T20:42:32.456Z,18.3
2018-03-06T20:43:22.488Z,18.3
2018-03-06T20:44:12.245Z,18.3
2018-03-06T20:45:02.310Z,18.3
2018-03-06T20:45:52.271Z,18.3
2018-03-06T20:46:42.325Z,18.3
2018-03-06T20:47:32.449Z,18.3
2018-03-06T20:48:23.081Z,18.3
2018-03-06T20:49:12.552Z,18.3
2018-03-06T20:50:02.902Z,18.3
2018-03-06T20:50:52.377Z,18.3
2018-03-06T20:51:43.346Z,18.3
2018-03-06T20:52:33.122Z,18.3
2018-03-06T20:53:22.758Z,18.3
2018-03-06T20:54:13.208Z,18.3
2018-03-06T20:55:02.659Z,18.3
2018-03-06T20:55:52.870Z,18.3
2018-03-06T20:56:43.318Z,18.3
2018-03-06T20:57:33.083Z,18.3
2018-03-06T20:58:23.429Z,18.3
2018-03-06T20:59:12.902Z,18.3
2018-03-06T21:00:03.542Z,18.3
2018-03-06T21:00:53.629Z,18.3
2018-03-06T21:01:43.642Z,18.2
2018-03-06T21:02:33.724Z,18.2
2018-03-06T21:03:24.291Z,18.2
2018-03-06T21:04:13.504Z,18.2
2018-03-06T21:05:03.326Z,18.2
2018-03-06T21:05:53.012Z,18.2
2018-03-06T21:06:44.130Z,18.2
2018-03-06T21:07:33.808Z,18.2
2018-03-06T21:08:24.169Z,18.2
2018-03-06T21:09:12.964Z,18.2
2018-03-06T21:10:03.679Z,18.2
2018-03-06T21:10:54.022Z,18.2
2018-03-06T21:11:43.101Z,18.2
2018-03-06T21:12:33.236Z,18.2
2018-03-06T21:13:23.440Z,18.2
2018-03-06T21:14:13.857Z,18.2
2018-03-06T21:15:03.005Z,18.2
2018-03-06T21:15:53.384Z,18.2
2018-03-06T21:16:43.178Z,18.2
2018-03-06T21:17:33.621Z,18.2
2018-03-06T21:18:24.134Z,18.2
2018-03-06T21:19:13.888Z,18.1
2018-03-06T21:20:04.740Z,18.2
2018-03-06T21:20:54.489Z,18.1
2018-03-06T21:21:44.521Z,18.1
2018-03-06T21:22:34.311Z,18.1
2018-03-06T21:23:24.894Z,18.1
2018-03-06T21:24:14.693Z,18.1
2018-03-06T21:25:05.737Z,18.1
2018-03-06T21:25:54.722Z,18.1
2018-03-06T21:26:45.666Z,18.1
2018-03-06T21:27:34.883Z,18.1
2018-03-06T21:28:25.204Z,18.1
2018-03-06T21:29:14.884Z,18.1
2018-03-06T21:30:05.333Z,18.1
2018-03-06T21:30:55.631Z,18.1
2018-03-06T21:31:46.205Z,18.1
2018-03-06T21:32:35.265Z,18.1
2018-03-06T21:33:24.980Z,18.1
2018-03-06T21:34:14.814Z,18.1
2018-03-06T21:35:05.422Z,18.1
2018-03-06T21:35:55.388Z,18.1
2018-03-06T21:36:47.058Z,18.1
2018-03-06T21:37:35.955Z,18.1
2018-03-06T21:38:26.249Z,18.1
2018-03-06T21:39:16.472Z,18.1
2018-03-06T21:40:05.413Z,18.1
2018-03-06T21:40:56.349Z,18.1
2018-03-06T21:41:45.341Z,18.1
2018-03-06T21:42:35.567Z,18.1
2018-03-06T21:43:25.265Z,18.1
2018-03-06T21:44:16.012Z,18.1
2018-03-06T21:45:07.207Z,18.1
2018-03-06T21:45:56.082Z,18.1
2018-03-06T21:46:46.546Z,18.1
2018-03-06T21:47:37.019Z,18.1
2018-03-06T21:48:27.094Z,18.1
2018-03-06T21:49:16.884Z,18.1
2018-03-06T21:50:07.262Z,18.1
2018-03-06T21:50:56.516Z,18.1
2018-03-06T21:51:47.299Z,18.1
2018-03-06T21:52:37.136Z,18.1
2018-03-06T21:53:27.433Z,18.1
2018-03-06T21:54:17.489Z,18.1
2018-03-06T21:55:07.581Z,18.1
2018-03-06T21:55:57.329Z,18.1
2018-03-06T21:56:47.688Z,18.1
2018-03-06T21:57:37.706Z,18.1
2018-03-06T21:58:27.781Z,18.1
2018-03-06T21:59:17.879Z,18.1
2018-03-06T22:00:07.891Z,18.1
2018-03-06T22:00:57.668Z,18.1
2018-03-06T22:01:47.756Z,18.1
2018-03-06T22:02:38.086Z,18.1
2018-03-06T22:03:28.116Z,18.1
2018-03-06T22:04:17.616Z,18.1
2018-03-06T22:05:07.160Z,18.1
2018-03-06T22:05:58.333Z,18.1
2018-03-06T22:06:48.091Z,18.1
2018-03-06T22:07:37.868Z,18.1
2018-03-06T22:08:27.911Z,18.1
2018-03-06T22:09:18.542Z,18.1
2018-03-06T22:10:07.763Z,18.1
2018-03-06T22:10:58.373Z,18.1
2018-03-06T22:11:48.198Z,18.1
2018-03-06T22:12:38.805Z,18.1
2018-03-06T22:13:27.705Z,18.1
2018-03-06T22:14:18.343Z,18.1
2018-03-06T22:15:08.972Z,18.1
2018-03-06T22:15:58.553Z,18.1
2018-03-06T22:16:48.497Z,18.1
2018-03-06T22:17:39.082Z,18.1
2018-03-06T22:18:28.909Z,18.1
2018-03-06T22:19:18.452Z,18.1
2018-03-06T22:20:08.491Z,18
2018-03-06T22:20:58.850Z,18.1
2018-03-06T22:21:49.422Z,18.1
2018-03-06T22:22:38.874Z,18.1
2018-03-06T22:23:28.684Z,18.1
2018-03-06T22:24:18.712Z,18.1
2018-03-06T22:25:09.638Z,18
2018-03-06T22:25:59.412Z,18
2018-03-06T22:26:49.470Z,18
2018-03-06T22:27:39.489Z,18
2018-03-06T22:28:29.557Z,18
2018-03-06T22:29:19.909Z,18
2018-03-06T22:30:09.718Z,18
2018-03-06T22:30:59.719Z,18
2018-03-06T22:31:49.803Z,18
2018-03-06T22:32:39.569Z,18
2018-03-06T22:33:30.161Z,18
2018-03-06T22:34:19.429Z,18
2018-03-06T22:35:09.767Z,18
2018-03-06T22:35:59.347Z,18
2018-03-06T22:36:49.669Z,18
2018-03-06T22:37:40.497Z,18
2018-03-06T22:38:30.791Z,18
2018-03-06T22:39:20.606Z,18
2018-03-06T22:40:10.666Z,18
2018-03-06T22:40:59.878Z,17.9
2018-03-06T22:41:50.493Z,18
2018-03-06T22:42:40.823Z,18
2018-03-06T22:43:30.308Z,18
2018-03-06T22:44:20.724Z,18
2018-03-06T22:45:10.503Z,18
2018-03-06T22:46:00.786Z,18
2018-03-06T22:46:51.127Z,18
2018-03-06T22:47:41.148Z,17.9
2018-03-06T22:48:30.643Z,17.9
2018-03-06T22:49:21.304Z,18
2018-03-06T22:50:11.041Z,17.9
2018-03-06T22:51:00.850Z,18
2018-03-06T22:51:50.936Z,17.9
2018-03-06T22:52:41.238Z,18
2018-03-06T22:53:31.013Z,17.9
2018-03-06T22:54:21.111Z,17.9
2018-03-06T22:55:11.446Z,17.9
2018-03-06T22:56:01.483Z,17.9
2018-03-06T22:56:50.943Z,17.9
2018-03-06T22:57:41.880Z,17.9
2018-03-06T22:58:31.604Z,17.9
2018-03-06T22:59:21.435Z,17.9
2018-03-06T23:00:12.049Z,17.9
2018-03-06T23:01:01.525Z,17.9
2018-03-06T23:01:52.158Z,17.9
2018-03-06T23:02:42.192Z,17.9
2018-03-06T23:03:31.992Z,17.9
2018-03-06T23:04:22.016Z,17.9
2018-03-06T23:05:12.095Z,17.9
2018-03-06T23:06:01.900Z,17.9
2018-03-06T23:06:52.479Z,17.9
2018-03-06T23:07:42.275Z,17.9
2018-03-06T23:08:32.590Z,17.9
2018-03-06T23:09:21.862Z,17.9
2018-03-06T23:10:12.717Z,17.9
2018-03-06T23:11:02.498Z,17.9
2018-03-06T23:11:52.571Z,17.9
2018-03-06T23:12:42.624Z,17.9
2018-03-06T23:13:33.060Z,17.9
2018-03-06T23:14:22.351Z,17.9
2018-03-06T23:15:13.059Z,17.9
2018-03-06T23:16:02.846Z,17.9
2018-03-06T23:16:52.620Z,17.9
2018-03-06T23:17:42.934Z,17.9
2018-03-06T23:18:33.044Z,17.9
2018-03-06T23:19:23.069Z,17.9
2018-03-06T23:20:13.107Z,17.9
2018-03-06T23:21:03.223Z,17.9
2018-03-06T23:21:52.715Z,17.9
2018-03-06T23:22:43.042Z,17.9
2018-03-06T23:23:33.049Z,17.9
2018-03-06T23:24:23.456Z,17.9
2018-03-06T23:25:13.765Z,17.9
2018-03-06T23:26:02.384Z,17.9
2018-03-06T23:26:53.641Z,17.9
2018-03-06T23:27:43.364Z,17.9
2018-03-06T23:28:33.698Z,17.9
2018-03-06T23:29:23.550Z,17.9
2018-03-06T23:30:14.109Z,17.9
2018-03-06T23:31:03.314Z,17.9
2018-03-06T23:31:53.634Z,17.9
2018-03-06T23:32:44.271Z,17.9
2018-03-06T23:33:33.861Z,17.9
2018-03-06T23:34:24.129Z,17.9
2018-03-06T23:35:14.443Z,17.9
2018-03-06T23:36:04.185Z,17.9
2018-03-06T23:36:54.270Z,17.9
2018-03-06T23:37:44.623Z,17.9
2018-03-06T23:38:34.411Z,17.9
2018-03-06T23:39:24.135Z,17.9
2018-03-06T23:40:14.781Z,17.9
2018-03-06T23:41:04.588Z,17.9
2018-03-06T23:41:54.608Z,17.9
2018-03-06T23:42:44.985Z,17.9
2018-03-06T23:43:34.726Z,17.9
2018-03-06T23:44:24.803Z,17.9
2018-03-06T23:45:15.107Z,17.9
2018-03-06T23:46:04.037Z,17.9
2018-03-06T23:46:54.685Z,17.9
2018-03-06T23:47:45.022Z,17.9
2018-03-06T23:48:35.092Z,17.9
2018-03-06T23:49:25.520Z,17.9
2018-03-06T23:50:14.930Z,17.9
2018-03-06T23:51:05.025Z,17.9
2018-03-06T23:51:55.026Z,17.9
2018-03-06T23:52:44.835Z,17.8
2018-03-06T23:53:35.458Z,17.9
2018-03-06T23:54:25.516Z,17.9
2018-03-06T23:55:14.981Z,17.9
2018-03-06T23:56:04.750Z,17.9
2018-03-06T23:56:55.381Z,17.9
2018-03-06T23:57:45.687Z,17.8
2018-03-06T23:58:35.486Z,17.9
2018-03-06T23:59:25.816Z,17.8
